Time;durP1;ratioP1;P1;durP2;ratioP2;P2;SDS_P1;SDS_P2;PMS_P1;PMS_P2;Temp;Humidity;BMP_temperature;BMP_pressure;BME280_temperature;BME280_humidity;BME280_pressure;Samples;Min_cycle;Max_cycle;Signal;HPM_P1;HPM_P2
2022/08/08 00:01:23;;;;;;;;;;;;;;;;;;5093964;28;1312;-70
2022/08/08 00:03:50;;;;;;;;;;;;;;;;;;5094234;28;945;-70
2022/08/08 00:06:19;;;;;;;;;;;;;;;;;;5094387;28;909;-70
2022/08/08 00:08:48;;;;;;;;;;;;;;;;;;5093923;28;868;-71
2022/08/08 00:11:16;;;;;;;;;;;;;;;;;;5093843;28;1921;-72
2022/08/08 00:13:42;;;;;;;;;;;;;;;;;;5094149;28;783;-71
2022/08/08 00:16:10;;;;;;;;;;;;;;;;;;5094533;28;870;-69
2022/08/08 00:18:37;;;;;;;;;;;;;;;;;;5093449;28;1352;-70
2022/08/08 00:21:04;;;;;;;;;;;;;;;;;;5092763;28;1397;-70
2022/08/08 00:23:34;;;;;;;;;;;;;;;;;;5092464;28;1117;-71
2022/08/08 00:26:02;;;;;;;;;;;;;;;;;;5093870;28;797;-70
2022/08/08 00:28:29;;;;;;;;;;;;;;;;;;5093457;28;1060;-71
2022/08/08 00:30:55;;;;;;;;;;;;;;;;;;5092192;28;1925;-70
2022/08/08 00:33:23;;;;;;;;;;;;;;;;;;5093656;28;779;-70
2022/08/08 00:35:50;;;;;;;;;;;;;;;;;;5093635;28;1134;-70
2022/08/08 00:38:29;;;;;;;;;;;;;;;;;;5092744;28;921;-70
2022/08/08 00:41:12;;;;;;;;;;;;;;;;;;5093229;28;1395;-69
2022/08/08 00:43:43;;;;;;;;;;;;;;;;;;5093403;28;988;-68
2022/08/08 00:46:29;;;;;;;;;;;;;;;;;;5094531;28;1646;-70
2022/08/08 00:49:09;;;;;;;;;;;;;;;;;;5092313;28;1157;-70
2022/08/08 00:51:58;;;;;;;;;;;;;;;;;;5091698;28;1984;-70
2022/08/08 00:54:33;;;;;;;;;;;;;;;;;;5092189;28;1352;-71
2022/08/08 00:57:15;;;;;;;;;;;;;;;;;;5091957;28;1441;-71
2022/08/08 00:59:50;;;;;;;;;;;;;;;;;;5091952;28;1440;-69
2022/08/08 01:02:32;;;;;;;;;;;;;;;;;;5091847;28;1376;-71
2022/08/08 01:05:20;;;;;;;;;;;;;;;;;;5079737;22;3664;-74
2022/08/08 01:08:06;;;;;;;;;;;;;;;;;;5000473;28;1230;-74
2022/08/08 01:10:55;;;;;;;;;;;;;;;;;;5008414;28;2033;-75
2022/08/08 01:13:47;;;;;;;;;;;;;;;;;;4992076;28;1309;-75
2022/08/08 01:16:24;;;;;;;;;;;;;;;;;;4992194;28;1464;-75
2022/08/08 01:19:09;;;;;;;;;;;;;;;;;;4992067;28;1040;-75
2022/08/08 01:21:54;;;;;;;;;;;;;;;;;;4991637;28;1176;-76
2022/08/08 01:24:28;;;;;;;;;;;;;;;;;;4991730;28;1350;-74
2022/08/08 01:27:15;;;;;;;;;;;;;;;;;;4991862;28;1163;-75
2022/08/08 01:29:51;;;;;;;;;;;;;;;;;;4991824;28;1645;-74
2022/08/08 01:32:36;;;;;;;;;;;;;;;;;;4991474;28;1938;-74
2022/08/08 01:35:08;;;;;;;;;;;;;;;;;;4991672;28;1386;-74
2022/08/08 01:37:54;;;;;;;;;;;;;;;;;;4991615;28;1627;-73
2022/08/08 01:40:28;;;;;;;;;;;;;;;;;;4991557;28;1459;-75
2022/08/08 01:42:58;;;;;;;;;;;;;;;;;;4991247;28;1245;-73
2022/08/08 01:45:33;;;;;;;;;;;;;;;;;;4991525;28;1388;-75
2022/08/08 01:48:02;;;;;;;;;;;;;;;;;;4991682;28;936;-74
2022/08/08 01:50:35;;;;;;;;;;;;;;;;;;4991419;28;1977;-76
2022/08/08 01:53:05;;;;;;;;;;;;;;;;;;4991266;28;1479;-74
2022/08/08 01:55:34;;;;;;;;;;;;;;;;;;4991048;28;1461;-75
2022/08/08 01:58:09;;;;;;;;;;;;;;;;;;4991242;28;1408;-74
2022/08/08 02:00:36;;;;;;;;;;;;;;;;;;4991228;28;1464;-73
2022/08/08 02:03:16;;;;;;;;;;;;;;;;;;4991145;28;1237;-75
2022/08/08 02:05:51;;;;;;;;;;;;;;;;;;4991111;28;1323;-73
2022/08/08 02:08:20;;;;;;;;;;;;;;;;;;4991466;28;1320;-78
2022/08/08 02:10:53;;;;;;;;;;;;;;;;;;4990943;28;1907;-74
2022/08/08 02:13:21;;;;;;;;;;;;;;;;;;4991084;28;1676;-74
2022/08/08 02:15:50;;;;;;;;;;;;;;;;;;4990685;28;1551;-74
2022/08/08 02:18:19;;;;;;;;;;;;;;;;;;4992083;28;873;-74
2022/08/08 02:22:30;;;;;;;;;;;;;;;;;;4991064;28;1343;-74
2022/08/08 02:23:37;;;;;;;;;;;;;;;;;;4991682;28;1052;-74
2022/08/08 02:26:07;;;;;;;;;;;;;;;;;;4990850;28;1412;-74
2022/08/08 02:28:36;;;;;;;;;;;;;;;;;;4990809;28;1524;-72
2022/08/08 02:31:07;;;;;;;;;;;;;;;;;;4990645;28;1911;-75
2022/08/08 02:33:40;;;;;;;;;;;;;;;;;;4990168;28;1229;-75
2022/08/08 02:36:21;;;;;;;;;;;;;;;;;;4992024;28;1346;-74
2022/08/08 02:38:48;;;;;;;;;;;;;;;;;;4990659;28;1295;-74
2022/08/08 02:41:32;;;;;;;;;;;;;;;;;;4990487;28;1204;-73
2022/08/08 02:44:19;;;;;;;;;;;;;;;;;;4972586;28;1536;-73
2022/08/08 02:46:48;;;;;;;;;;;;;;;;;;4971284;28;1576;-74
2022/08/08 02:49:48;;;;;;;;;;;;;;;;;;4972581;28;854;-75
2022/08/08 02:52:29;;;;;;;;;;;;;;;;;;4934057;29;1970;-74
2022/08/08 02:54:59;;;;;;;;;;;;;;;;;;4934739;29;1307;-76
2022/08/08 02:57:56;;;;;;;;;;;;;;;;;;4953797;28;1391;-75
2022/08/08 03:00:38;;;;;;;;;;;;;;;;;;4950706;29;1140;-74
2022/08/08 03:03:24;;;;;;;;;;;;;;;;;;4965620;28;1209;-74
2022/08/08 03:06:00;;;;;;;;;;;;;;;;;;4972132;28;1291;-74
2022/08/08 03:08:34;;;;;;;;;;;;;;;;;;4971889;28;996;-74
2022/08/08 03:11:17;;;;;;;;;;;;;;;;;;4971043;28;1957;-75
2022/08/08 03:14:01;;;;;;;;;;;;;;;;;;4972195;28;783;-74
2022/08/08 03:16:46;;;;;;;;;;;;;;;;;;4970997;28;1406;-74
2022/08/08 03:19:29;;;;;;;;;;;;;;;;;;4971085;28;1319;-74
2022/08/08 03:21:55;;;;;;;;;;;;;;;;;;4971910;28;1452;-75
2022/08/08 03:24:23;;;;;;;;;;;;;;;;;;4971275;28;1429;-74
2022/08/08 03:26:52;;;;;;;;;;;;;;;;;;4971876;28;1244;-77
2022/08/08 03:29:20;;;;;;;;;;;;;;;;;;4972584;28;1208;-74
2022/08/08 03:34:31;;;;;;;;;;;;;;;;;;4974525;28;1293;-75
2022/08/08 03:36:57;;;;;;;;;;;;;;;;;;4974639;28;1260;-72
2022/08/08 03:39:25;;;;;;;;;;;;;;;;;;4974423;28;1189;-74
2022/08/08 03:41:51;;;;;;;;;;;;;;;;;;4974069;28;1298;-75
2022/08/08 03:44:17;;;;;;;;;;;;;;;;;;4974049;28;1381;-75
2022/08/08 03:46:44;;;;;;;;;;;;;;;;;;4975480;28;930;-75
2022/08/08 03:49:16;;;;;;;;;;;;;;;;;;4974669;28;1367;-75
2022/08/08 03:51:42;;;;;;;;;;;;;;;;;;4973999;28;1935;-74
2022/08/08 03:54:08;;;;;;;;;;;;;;;;;;4974278;28;1223;-73
2022/08/08 03:56:36;;;;;;;;;;;;;;;;;;4974099;28;1426;-75
2022/08/08 03:59:03;;;;;;;;;;;;;;;;;;4975389;28;838;-74
2022/08/08 04:01:34;;;;;;;;;;;;;;;;;;4973833;28;1318;-74
2022/08/08 04:04:00;;;;;;;;;;;;;;;;;;4974071;28;1271;-76
2022/08/08 04:06:31;;;;;;;;;;;;;;;;;;4974007;28;1467;-74
2022/08/08 04:09:00;;;;;;;;;;;;;;;;;;4974144;28;1207;-74
2022/08/08 04:11:27;;;;;;;;;;;;;;;;;;4973811;28;1963;-75
2022/08/08 04:13:55;;;;;;;;;;;;;;;;;;4974340;28;1392;-75
2022/08/08 04:16:21;;;;;;;;;;;;;;;;;;4974565;28;1372;-77
2022/08/08 04:18:47;;;;;;;;;;;;;;;;;;4965804;28;1654;-75
2022/08/08 04:21:16;;;;;;;;;;;;;;;;;;4984214;28;1418;-74
2022/08/08 04:23:42;;;;;;;;;;;;;;;;;;4988827;28;1459;-75
2022/08/08 04:26:09;;;;;;;;;;;;;;;;;;4984727;28;1384;-75
2022/08/08 04:28:35;;;;;;;;;;;;;;;;;;4987573;28;1394;-74
2022/08/08 04:31:03;;;;;;;;;;;;;;;;;;4982161;28;1967;-74
2022/08/08 04:33:31;;;;;;;;;;;;;;;;;;4992782;28;965;-73
2022/08/08 04:35:57;;;;;;;;;;;;;;;;;;4994402;28;1280;-74
2022/08/08 04:38:24;;;;;;;;;;;;;;;;;;4992687;28;1292;-74
2022/08/08 04:40:53;;;;;;;;;;;;;;;;;;4992496;28;1452;-74
2022/08/08 04:43:19;;;;;;;;;;;;;;;;;;4992775;28;1277;-74
2022/08/08 04:45:51;;;;;;;;;;;;;;;;;;4992901;28;1511;-74
2022/08/08 04:48:18;;;;;;;;;;;;;;;;;;4993030;28;1160;-74
2022/08/08 04:50:45;;;;;;;;;;;;;;;;;;4989647;28;1547;-74
2022/08/08 04:53:14;;;;;;;;;;;;;;;;;;4972980;28;1933;-74
2022/08/08 04:55:42;;;;;;;;;;;;;;;;;;4972856;28;1667;-74
2022/08/08 04:58:12;;;;;;;;;;;;;;;;;;4972835;28;1529;-74
2022/08/08 05:00:39;;;;;;;;;;;;;;;;;;4984250;28;1406;-73
2022/08/08 05:03:05;;;;;;;;;;;;;;;;;;4982986;28;1359;-74
2022/08/08 05:05:33;;;;;;;;;;;;;;;;;;4985564;28;1477;-75
2022/08/08 05:07:59;;;;;;;;;;;;;;;;;;4986997;28;1474;-73
2022/08/08 05:10:28;;;;;;;;;;;;;;;;;;4981829;28;1408;-75
2022/08/08 05:12:55;;;;;;;;;;;;;;;;;;4978063;28;1978;-74
2022/08/08 05:15:21;;;;;;;;;;;;;;;;;;4993379;28;1340;-77
2022/08/08 05:17:47;;;;;;;;;;;;;;;;;;4968550;28;1565;-76
2022/08/08 05:20:13;;;;;;;;;;;;;;;;;;4980439;28;1330;-75
2022/08/08 05:22:41;;;;;;;;;;;;;;;;;;4971804;28;1288;-74
2022/08/08 05:25:09;;;;;;;;;;;;;;;;;;4970985;28;1403;-74
2022/08/08 05:27:35;;;;;;;;;;;;;;;;;;4979977;28;1402;-73
2022/08/08 05:30:02;;;;;;;;;;;;;;;;;;4973386;28;1577;-75
2022/08/08 05:32:36;;;;;;;;;;;;;;;;;;4971630;28;1978;-76
2022/08/08 05:35:03;;;;;;;;;;;;;;;;;;4951373;28;1432;-76
2022/08/08 05:37:32;;;;;;;;;;;;;;;;;;4959398;28;1422;-75
2022/08/08 05:40:03;;;;;;;;;;;;;;;;;;4977880;28;1827;-74
2022/08/08 05:42:31;;;;;;;;;;;;;;;;;;4971214;28;1454;-77
2022/08/08 05:44:57;;;;;;;;;;;;;;;;;;4971425;28;1456;-75
2022/08/08 05:47:23;;;;;;;;;;;;;;;;;;4974691;28;1398;-75
2022/08/08 05:49:49;;;;;;;;;;;;;;;;;;4982567;28;1384;-75
2022/08/08 05:52:16;;;;;;;;;;;;;;;;;;4977736;28;1914;-76
2022/08/08 05:54:43;;;;;;;;;;;;;;;;;;4965874;28;1432;-76
2022/08/08 05:57:13;;;;;;;;;;;;;;;;;;4978376;28;1392;-76
2022/08/08 05:59:40;;;;;;;;;;;;;;;;;;4993013;28;1642;-76
2022/08/08 06:03:08;;;;;;;;;;;;;;;;;;4978305;28;1499;-76
2022/08/08 06:04:54;;;;;;;;;;;;;;;;;;4979843;28;1418;-76
2022/08/08 06:07:21;;;;;;;;;;;;;;;;;;4979323;28;1386;-76
2022/08/08 06:09:47;;;;;;;;;;;;;;;;;;4971599;28;1406;-75
2022/08/08 06:12:15;;;;;;;;;;;;;;;;;;4971246;28;1974;-76
2022/08/08 06:14:42;;;;;;;;;;;;;;;;;;4979978;28;1394;-76
2022/08/08 06:17:09;;;;;;;;;;;;;;;;;;4971224;28;1464;-76
2022/08/08 06:19:48;;;;;;;;;;;;;;;;;;4967449;28;1537;-78
2022/08/08 06:22:15;;;;;;;;;;;;;;;;;;4976343;28;1463;-76
2022/08/08 06:24:46;;;;;;;;;;;;;;;;;;4976487;28;1601;-75
2022/08/08 06:27:12;;;;;;;;;;;;;;;;;;4977994;28;1427;-75
2022/08/08 06:29:45;;;;;;;;;;;;;;;;;;4982058;28;1600;-77
2022/08/08 06:32:13;;;;;;;;;;;;;;;;;;4990023;28;1918;-77
2022/08/08 06:34:41;;;;;;;;;;;;;;;;;;4989943;28;1364;-76
2022/08/08 06:37:08;;;;;;;;;;;;;;;;;;4988530;28;1519;-75
2022/08/08 06:39:35;;;;;;;;;;;;;;;;;;4988705;28;1564;-76
2022/08/08 06:42:02;;;;;;;;;;;;;;;;;;4981524;28;1230;-76
2022/08/08 06:44:37;;;;;;;;;;;;;;;;;;4989727;28;1507;-76
2022/08/08 06:47:05;;;;;;;;;;;;;;;;;;4991279;28;795;-76
2022/08/08 06:49:31;;;;;;;;;;;;;;;;;;4981116;28;1461;-77
2022/08/08 06:51:57;;;;;;;;;;;;;;;;;;4978218;28;1972;-77
2022/08/08 06:54:23;;;;;;;;;;;;;;;;;;4971688;28;1607;-77
2022/08/08 06:56:50;;;;;;;;;;;;;;;;;;4970091;28;1278;-78
2022/08/08 06:59:16;;;;;;;;;;;;;;;;;;4972855;28;1428;-77
2022/08/08 07:01:45;;;;;;;;;;;;;;;;;;4976283;28;1523;-76
2022/08/08 07:04:18;;;;;;;;;;;;;;;;;;4974970;28;1590;-76
2022/08/08 07:06:49;;;;;;;;;;;;;;;;;;5003715;23;3672;-72
2022/08/08 07:09:16;;;;;;;;;;;;;;;;;;5032211;28;1454;-71
2022/08/08 07:11:42;;;;;;;;;;;;;;;;;;5028251;28;1906;-72
2022/08/08 07:14:10;;;;;;;;;;;;;;;;;;5032157;28;1464;-71
2022/08/08 07:16:38;;;;;;;;;;;;;;;;;;5038321;28;1421;-71
2022/08/08 07:19:08;;;;;;;;;;;;;;;;;;5069765;28;1466;-71
2022/08/08 07:21:40;;;;;;;;;;;;;;;;;;5051667;28;1473;-70
2022/08/08 07:24:07;;;;;;;;;;;;;;;;;;5053045;28;1388;-71
2022/08/08 07:26:46;;;;;;;;;;;;;;;;;;5051720;28;1484;-71
2022/08/08 07:29:13;;;;;;;;;;;;;;;;;;5069587;28;1368;-72
2022/08/08 07:31:41;;;;;;;;;;;;;;;;;;5042084;28;1475;-72
2022/08/08 07:34:09;;;;;;;;;;;;;;;;;;5052839;28;2033;-72
2022/08/08 07:36:36;;;;;;;;;;;;;;;;;;5064984;28;1344;-71
2022/08/08 07:39:03;;;;;;;;;;;;;;;;;;5037029;28;1471;-72
2022/08/08 07:41:29;;;;;;;;;;;;;;;;;;5068578;28;1693;-71
2022/08/08 07:43:57;;;;;;;;;;;;;;;;;;5069480;28;1440;-71
2022/08/08 07:46:24;;;;;;;;;;;;;;;;;;5052103;28;1522;-72
2022/08/08 07:48:51;;;;;;;;;;;;;;;;;;5052645;28;1282;-72
2022/08/08 07:51:18;;;;;;;;;;;;;;;;;;5050851;28;1428;-72
2022/08/08 07:53:47;;;;;;;;;;;;;;;;;;5052050;28;1976;-72
2022/08/08 07:56:16;;;;;;;;;;;;;;;;;;5051438;28;1490;-71
2022/08/08 07:58:43;;;;;;;;;;;;;;;;;;5065972;28;1210;-72
2022/08/08 08:01:11;;;;;;;;;;;;;;;;;;5050491;28;1355;-72
2022/08/08 08:03:42;;;;;;;;;;;;;;;;;;5063685;28;1422;-72
2022/08/08 08:06:12;;;;;;;;;;;;;;;;;;5032546;28;1417;-73
2022/08/08 08:08:44;;;;;;;;;;;;;;;;;;5046937;28;1408;-72
2022/08/08 08:11:11;;;;;;;;;;;;;;;;;;5051019;28;1439;-72
2022/08/08 08:13:41;;;;;;;;;;;;;;;;;;5067930;28;1975;-72
2022/08/08 08:16:10;;;;;;;;;;;;;;;;;;5052411;28;1323;-71
2022/08/08 08:18:43;;;;;;;;;;;;;;;;;;5049399;28;1748;-72
2022/08/08 08:21:09;;;;;;;;;;;;;;;;;;5068783;28;1401;-70
2022/08/08 08:23:36;;;;;;;;;;;;;;;;;;5068185;28;1325;-72
2022/08/08 08:26:03;;;;;;;;;;;;;;;;;;5052759;28;1329;-71
2022/08/08 08:28:30;;;;;;;;;;;;;;;;;;5048666;28;1452;-72
2022/08/08 08:31:03;;;;;;;;;;;;;;;;;;5048673;28;1705;-70
2022/08/08 08:33:31;;;;;;;;;;;;;;;;;;5067415;28;1979;-70
2022/08/08 08:35:59;;;;;;;;;;;;;;;;;;5067695;28;1344;-71
2022/08/08 08:38:25;;;;;;;;;;;;;;;;;;5049887;28;1470;-71
2022/08/08 08:41:03;;;;;;;;;;;;;;;;;;5051228;28;1380;-70
2022/08/08 08:43:29;;;;;;;;;;;;;;;;;;5068032;28;1163;-72
2022/08/08 08:46:00;;;;;;;;;;;;;;;;;;5067533;28;1720;-71
2022/08/08 08:48:27;;;;;;;;;;;;;;;;;;5049758;28;1596;-71
2022/08/08 08:50:54;;;;;;;;;;;;;;;;;;5050806;28;1458;-70
2022/08/08 08:53:22;;;;;;;;;;;;;;;;;;5059247;28;1977;-71
2022/08/08 08:55:48;;;;;;;;;;;;;;;;;;5057615;28;1380;-71
2022/08/08 08:58:19;;;;;;;;;;;;;;;;;;5051148;28;1574;-71
2022/08/08 09:00:46;;;;;;;;;;;;;;;;;;5052465;28;802;-72
2022/08/08 09:03:13;;;;;;;;;;;;;;;;;;5058006;28;1455;-71
2022/08/08 09:05:40;;;;;;;;;;;;;;;;;;5050325;28;1150;-71
2022/08/08 09:08:06;;;;;;;;;;;;;;;;;;5066316;28;1392;-71
2022/08/08 09:10:33;;;;;;;;;;;;;;;;;;5059862;28;1190;-71
2022/08/08 09:12:59;;;;;;;;;;;;;;;;;;5042150;28;1906;-70
2022/08/08 09:15:25;;;;;;;;;;;;;;;;;;5050547;28;1341;-70
2022/08/08 09:17:52;;;;;;;;;;;;;;;;;;5060355;28;1372;-71
2022/08/08 09:20:19;;;;;;;;;;;;;;;;;;5070850;28;1427;-71
2022/08/08 09:22:46;;;;;;;;;;;;;;;;;;5051385;28;1405;-70
2022/08/08 09:25:12;;;;;;;;;;;;;;;;;;5049374;28;1648;-71
2022/08/08 09:27:39;;;;;;;;;;;;;;;;;;5059432;28;1403;-71
2022/08/08 09:30:07;;;;;;;;;;;;;;;;;;5046272;28;1435;-70
2022/08/08 09:32:36;;;;;;;;;;;;;;;;;;5049075;28;1969;-71
2022/08/08 09:35:05;;;;;;;;;;;;;;;;;;5065886;28;1557;-71
2022/08/08 09:37:42;;;;;;;;;;;;;;;;;;5048495;28;1494;-71
2022/08/08 09:40:09;;;;;;;;;;;;;;;;;;5050426;28;1394;-71
2022/08/08 09:42:37;;;;;;;;;;;;;;;;;;5065252;28;1442;-71
2022/08/08 09:45:04;;;;;;;;;;;;;;;;;;5051419;28;1090;-72
2022/08/08 09:47:31;;;;;;;;;;;;;;;;;;5051286;28;1308;-71
2022/08/08 09:49:58;;;;;;;;;;;;;;;;;;5049486;28;1390;-71
2022/08/08 09:52:24;;;;;;;;;;;;;;;;;;5050159;28;1544;-71
2022/08/08 09:54:51;;;;;;;;;;;;;;;;;;5045384;28;1914;-70
2022/08/08 09:57:18;;;;;;;;;;;;;;;;;;5051019;28;1422;-70
2022/08/08 09:59:44;;;;;;;;;;;;;;;;;;5051188;28;1574;-71
2022/08/08 10:02:12;;;;;;;;;;;;;;;;;;5050945;28;1391;-72
2022/08/08 10:04:38;;;;;;;;;;;;;;;;;;5050962;28;1063;-71
2022/08/08 10:07:06;;;;;;;;;;;;;;;;;;5049054;28;1390;-71
2022/08/08 10:09:33;;;;;;;;;;;;;;;;;;5049061;28;1454;-72
2022/08/08 10:12:00;;;;;;;;;;;;;;;;;;5050767;28;1311;-71
2022/08/08 10:14:33;;;;;;;;;;;;;;;;;;5048495;28;1911;-71
2022/08/08 10:16:59;;;;;;;;;;;;;;;;;;5048980;28;1401;-71
2022/08/08 10:19:33;;;;;;;;;;;;;;;;;;5049932;28;1454;-70
2022/08/08 10:21:59;;;;;;;;;;;;;;;;;;5045263;28;1493;-71
2022/08/08 10:24:26;;;;;;;;;;;;;;;;;;5049870;28;1457;-71
2022/08/08 10:26:53;;;;;;;;;;;;;;;;;;5048987;28;1441;-71
2022/08/08 10:29:21;;;;;;;;;;;;;;;;;;5050173;28;1422;-71
2022/08/08 10:34:31;;;;;;;;;;;;;;;;;;5060788;28;1997;-71
2022/08/08 10:36:58;;;;;;;;;;;;;;;;;;5048847;28;1448;-71
2022/08/08 10:39:24;;;;;;;;;;;;;;;;;;5065283;28;1462;-72
2022/08/08 10:41:55;;;;;;;;;;;;;;;;;;5048970;28;1608;-71
2022/08/08 10:44:25;;;;;;;;;;;;;;;;;;5058798;28;1418;-72
2022/08/08 10:46:51;;;;;;;;;;;;;;;;;;5040957;28;1475;-71
2022/08/08 10:49:18;;;;;;;;;;;;;;;;;;5038977;28;1234;-72
2022/08/08 10:51:45;;;;;;;;;;;;;;;;;;5045126;28;1592;-72
2022/08/08 10:54:18;;;;;;;;;;;;;;;;;;5047458;28;1980;-72
2022/08/08 10:56:44;;;;;;;;;;;;;;;;;;5048644;28;1640;-72
2022/08/08 10:59:10;;;;;;;;;;;;;;;;;;5043331;28;1449;-71
2022/08/08 11:01:38;;;;;;;;;;;;;;;;;;5044439;28;1565;-72
2022/08/08 11:04:06;;;;;;;;;;;;;;;;;;5045095;28;1360;-73
2022/08/08 11:06:33;;;;;;;;;;;;;;;;;;5043439;28;1479;-72
2022/08/08 11:09:00;;;;;;;;;;;;;;;;;;5050525;28;992;-72
2022/08/08 11:11:26;;;;;;;;;;;;;;;;;;5065559;28;1392;-72
2022/08/08 11:13:54;;;;;;;;;;;;;;;;;;5048716;28;1918;-72
2022/08/08 11:16:22;;;;;;;;;;;;;;;;;;5048835;28;1432;-72
2022/08/08 11:18:50;;;;;;;;;;;;;;;;;;5047188;28;1420;-71
2022/08/08 11:21:17;;;;;;;;;;;;;;;;;;5049411;28;1256;-71
2022/08/08 11:23:43;;;;;;;;;;;;;;;;;;5047029;28;1478;-72
2022/08/08 11:26:10;;;;;;;;;;;;;;;;;;5047493;28;1500;-71
2022/08/08 11:28:37;;;;;;;;;;;;;;;;;;5050221;28;1157;-72
2022/08/08 11:31:04;;;;;;;;;;;;;;;;;;5050078;28;1083;-72
2022/08/08 11:33:31;;;;;;;;;;;;;;;;;;5061759;28;1967;-72
2022/08/08 11:35:58;;;;;;;;;;;;;;;;;;5063397;28;1661;-71
2022/08/08 11:38:25;;;;;;;;;;;;;;;;;;5047737;28;1426;-72
2022/08/08 11:40:51;;;;;;;;;;;;;;;;;;5049823;28;1146;-72
2022/08/08 11:43:18;;;;;;;;;;;;;;;;;;5048425;28;1289;-71
2022/08/08 11:45:44;;;;;;;;;;;;;;;;;;5049422;28;1072;-71
2022/08/08 11:48:10;;;;;;;;;;;;;;;;;;5063549;28;1418;-71
2022/08/08 11:50:37;;;;;;;;;;;;;;;;;;5056893;28;1391;-71
2022/08/08 11:53:04;;;;;;;;;;;;;;;;;;5049124;28;1383;-71
2022/08/08 11:55:34;;;;;;;;;;;;;;;;;;5047577;28;1983;-71
2022/08/08 11:58:00;;;;;;;;;;;;;;;;;;5045799;28;1526;-72
2022/08/08 12:00:27;;;;;;;;;;;;;;;;;;5046504;28;1398;-70
2022/08/08 12:02:53;;;;;;;;;;;;;;;;;;5043823;28;1231;-71
2022/08/08 12:05:30;;;;;;;;;;;;;;;;;;5053336;28;1075;-72
2022/08/08 12:07:56;;;;;;;;;;;;;;;;;;5053321;28;1429;-71
2022/08/08 12:10:24;;;;;;;;;;;;;;;;;;5050628;28;1466;-71
2022/08/08 12:12:59;;;;;;;;;;;;;;;;;;5068475;28;1169;-72
2022/08/08 12:15:26;;;;;;;;;;;;;;;;;;5050459;28;1969;-72
2022/08/08 12:17:52;;;;;;;;;;;;;;;;;;5065058;28;1612;-71
2022/08/08 12:20:18;;;;;;;;;;;;;;;;;;5053223;28;1312;-72
2022/08/08 12:22:49;;;;;;;;;;;;;;;;;;5051466;28;1462;-71
2022/08/08 12:25:20;;;;;;;;;;;;;;;;;;5053606;28;1157;-72
2022/08/08 12:27:47;;;;;;;;;;;;;;;;;;5049862;28;1413;-72
2022/08/08 12:30:13;;;;;;;;;;;;;;;;;;5052825;28;1056;-72
2022/08/08 12:32:40;;;;;;;;;;;;;;;;;;5052538;28;901;-71
2022/08/08 12:35:08;;;;;;;;;;;;;;;;;;5052557;28;1914;-71
2022/08/08 12:37:34;;;;;;;;;;;;;;;;;;5051937;28;1368;-69
2022/08/08 12:40:12;;;;;;;;;;;;;;;;;;5051385;28;1407;-71
2022/08/08 12:42:43;;;;;;;;;;;;;;;;;;5052250;28;1126;-71
2022/08/08 12:45:11;;;;;;;;;;;;;;;;;;5049264;28;1390;-71
2022/08/08 12:47:37;;;;;;;;;;;;;;;;;;5052094;28;1413;-72
2022/08/08 12:50:04;;;;;;;;;;;;;;;;;;5052880;28;879;-71
2022/08/08 12:52:30;;;;;;;;;;;;;;;;;;5052146;28;952;-71
2022/08/08 12:55:04;;;;;;;;;;;;;;;;;;5050088;28;1950;-71
2022/08/08 12:57:30;;;;;;;;;;;;;;;;;;5050559;28;1535;-72
2022/08/08 12:59:57;;;;;;;;;;;;;;;;;;5052356;28;1233;-71
2022/08/08 13:02:25;;;;;;;;;;;;;;;;;;5045977;28;1411;-71
2022/08/08 13:04:52;;;;;;;;;;;;;;;;;;5047354;28;1430;-73
2022/08/08 13:07:18;;;;;;;;;;;;;;;;;;5052223;28;1420;-71
2022/08/08 13:09:45;;;;;;;;;;;;;;;;;;5067660;28;1310;-71
2022/08/08 13:15:01;;;;;;;;;;;;;;;;;;5026353;28;1914;-76
2022/08/08 13:17:31;;;;;;;;;;;;;;;;;;5032178;28;1206;-76
2022/08/08 13:19:57;;;;;;;;;;;;;;;;;;5031868;28;1400;-76
2022/08/08 13:22:23;;;;;;;;;;;;;;;;;;5031727;28;1567;-77
2022/08/08 13:24:50;;;;;;;;;;;;;;;;;;5044295;28;1189;-77
2022/08/08 13:27:16;;;;;;;;;;;;;;;;;;5033609;28;1468;-76
2022/08/08 13:29:49;;;;;;;;;;;;;;;;;;5044803;28;1412;-76
2022/08/08 13:32:15;;;;;;;;;;;;;;;;;;5034124;28;1107;-76
2022/08/08 13:34:43;;;;;;;;;;;;;;;;;;5020473;28;1915;-75
2022/08/08 13:37:09;;;;;;;;;;;;;;;;;;5021202;28;1468;-75
2022/08/08 13:39:35;;;;;;;;;;;;;;;;;;5036325;28;1419;-76
2022/08/08 13:42:01;;;;;;;;;;;;;;;;;;5042709;28;1206;-74
2022/08/08 13:44:28;;;;;;;;;;;;;;;;;;5051114;28;1455;-75
2022/08/08 13:46:55;;;;;;;;;;;;;;;;;;5028694;28;1433;-75
2022/08/08 13:49:24;;;;;;;;;;;;;;;;;;5048234;28;1207;-75
2022/08/08 13:51:58;;;;;;;;;;;;;;;;;;5050915;28;1079;-75
2022/08/08 13:54:25;;;;;;;;;;;;;;;;;;5032173;28;1922;-75
2022/08/08 13:57:05;;;;;;;;;;;;;;;;;;5032865;28;1086;-74
2022/08/08 13:59:32;;;;;;;;;;;;;;;;;;5043035;28;1452;-76
2022/08/08 14:01:58;;;;;;;;;;;;;;;;;;5038666;28;1142;-75
2022/08/08 14:04:25;;;;;;;;;;;;;;;;;;5042309;28;1485;-75
2022/08/08 14:06:58;;;;;;;;;;;;;;;;;;5051048;28;787;-75
2022/08/08 14:09:30;;;;;;;;;;;;;;;;;;5046655;28;1564;-75
2022/08/08 14:11:57;;;;;;;;;;;;;;;;;;5038850;28;1217;-76
2022/08/08 14:14:23;;;;;;;;;;;;;;;;;;5046134;28;1997;-74
2022/08/08 14:16:49;;;;;;;;;;;;;;;;;;5020865;28;1956;-74
2022/08/08 14:19:15;;;;;;;;;;;;;;;;;;5046567;28;1502;-75
2022/08/08 14:21:42;;;;;;;;;;;;;;;;;;5039335;28;1131;-74
2022/08/08 14:24:08;;;;;;;;;;;;;;;;;;5034057;28;1464;-74
2022/08/08 14:26:41;;;;;;;;;;;;;;;;;;5045352;28;1179;-75
2022/08/08 14:29:07;;;;;;;;;;;;;;;;;;5029142;28;1458;-75
2022/08/08 14:31:34;;;;;;;;;;;;;;;;;;5024577;28;1424;-75
2022/08/08 14:34:01;;;;;;;;;;;;;;;;;;5032884;28;2003;-73
2022/08/08 14:36:33;;;;;;;;;;;;;;;;;;5044639;28;2059;-74
2022/08/08 14:39:00;;;;;;;;;;;;;;;;;;5049856;28;1460;-75
2022/08/08 14:41:26;;;;;;;;;;;;;;;;;;5040821;28;1266;-73
2022/08/08 14:43:54;;;;;;;;;;;;;;;;;;5039897;28;1360;-76
2022/08/08 14:46:21;;;;;;;;;;;;;;;;;;5045502;28;1415;-74
2022/08/08 14:48:48;;;;;;;;;;;;;;;;;;5040923;28;1345;-74
2022/08/08 14:51:15;;;;;;;;;;;;;;;;;;5040635;28;1396;-74
2022/08/08 14:53:41;;;;;;;;;;;;;;;;;;5037666;28;1439;-76
2022/08/08 14:56:07;;;;;;;;;;;;;;;;;;5049404;28;2028;-77
2022/08/08 14:58:34;;;;;;;;;;;;;;;;;;5046698;28;1465;-76
2022/08/08 15:01:02;;;;;;;;;;;;;;;;;;5045248;28;1262;-75
2022/08/08 15:03:28;;;;;;;;;;;;;;;;;;5048979;28;1411;-77
2022/08/08 15:05:54;;;;;;;;;;;;;;;;;;5047705;28;1146;-76
2022/08/08 15:08:20;;;;;;;;;;;;;;;;;;5041714;28;1092;-75
2022/08/08 15:10:47;;;;;;;;;;;;;;;;;;5045809;28;1412;-75
2022/08/08 15:13:13;;;;;;;;;;;;;;;;;;5022246;28;1371;-75
2022/08/08 15:15:39;;;;;;;;;;;;;;;;;;5041436;28;1911;-76
2022/08/08 15:18:07;;;;;;;;;;;;;;;;;;5041146;28;1209;-75
2022/08/08 15:20:33;;;;;;;;;;;;;;;;;;5050529;28;839;-73
2022/08/08 15:23:00;;;;;;;;;;;;;;;;;;5044669;28;1560;-73
2022/08/08 15:25:26;;;;;;;;;;;;;;;;;;5042932;28;1559;-74
2022/08/08 15:27:53;;;;;;;;;;;;;;;;;;5017335;28;2232;-73
2022/08/08 15:30:19;;;;;;;;;;;;;;;;;;5042769;28;1385;-73
2022/08/08 15:32:45;;;;;;;;;;;;;;;;;;5038471;28;1463;-74
2022/08/08 15:35:13;;;;;;;;;;;;;;;;;;5049803;28;1906;-74
2022/08/08 15:37:39;;;;;;;;;;;;;;;;;;5048234;28;1225;-73
2022/08/08 15:40:06;;;;;;;;;;;;;;;;;;5040890;28;1478;-74
2022/08/08 15:42:32;;;;;;;;;;;;;;;;;;5053143;28;1491;-73
2022/08/08 15:44:58;;;;;;;;;;;;;;;;;;5044381;28;1464;-74
2022/08/08 15:47:25;;;;;;;;;;;;;;;;;;5042801;28;1365;-75
2022/08/08 15:49:51;;;;;;;;;;;;;;;;;;5052545;28;1684;-76
2022/08/08 15:52:20;;;;;;;;;;;;;;;;;;5030264;28;1426;-76
2022/08/08 15:54:47;;;;;;;;;;;;;;;;;;5036331;28;1922;-76
2022/08/08 15:57:13;;;;;;;;;;;;;;;;;;5047947;28;1392;-76
2022/08/08 15:59:40;;;;;;;;;;;;;;;;;;5050050;28;1408;-77
2022/08/08 16:02:06;;;;;;;;;;;;;;;;;;5039557;28;1554;-76
2022/08/08 16:04:32;;;;;;;;;;;;;;;;;;5041951;28;1306;-75
2022/08/08 16:06:59;;;;;;;;;;;;;;;;;;5033837;28;936;-76
2022/08/08 16:09:27;;;;;;;;;;;;;;;;;;5033954;28;1064;-75
2022/08/08 16:11:53;;;;;;;;;;;;;;;;;;5033925;28;688;-76
2022/08/08 16:14:19;;;;;;;;;;;;;;;;;;5033837;28;1314;-76
2022/08/08 16:16:45;;;;;;;;;;;;;;;;;;5034165;28;1978;-75
2022/08/08 16:19:12;;;;;;;;;;;;;;;;;;5034027;28;814;-75
2022/08/08 16:21:38;;;;;;;;;;;;;;;;;;5033269;28;949;-75
2022/08/08 16:24:05;;;;;;;;;;;;;;;;;;5034572;28;1375;-75
2022/08/08 16:26:33;;;;;;;;;;;;;;;;;;5034373;28;1401;-76
2022/08/08 16:29:00;;;;;;;;;;;;;;;;;;5034681;28;1261;-76
2022/08/08 16:31:26;;;;;;;;;;;;;;;;;;5033156;28;1060;-75
2022/08/08 16:33:52;;;;;;;;;;;;;;;;;;5015837;28;1330;-75
2022/08/08 16:36:19;;;;;;;;;;;;;;;;;;5041803;28;1977;-75
2022/08/08 16:38:45;;;;;;;;;;;;;;;;;;5045103;28;1450;-76
2022/08/08 16:41:12;;;;;;;;;;;;;;;;;;5042544;28;1185;-75
2022/08/08 16:43:40;;;;;;;;;;;;;;;;;;5050838;28;1486;-76
2022/08/08 16:46:06;;;;;;;;;;;;;;;;;;5040863;28;1407;-76
2022/08/08 16:48:32;;;;;;;;;;;;;;;;;;5045398;28;1499;-76
2022/08/08 16:50:59;;;;;;;;;;;;;;;;;;5049423;28;953;-76
2022/08/08 16:53:25;;;;;;;;;;;;;;;;;;5050820;28;1425;-76
2022/08/08 16:55:51;;;;;;;;;;;;;;;;;;5042616;28;1906;-75
2022/08/08 16:58:17;;;;;;;;;;;;;;;;;;5041673;28;1255;-76
2022/08/08 17:00:45;;;;;;;;;;;;;;;;;;5031376;28;1447;-76
2022/08/08 17:03:11;;;;;;;;;;;;;;;;;;5046249;28;1485;-75
2022/08/08 17:05:37;;;;;;;;;;;;;;;;;;5038679;28;1416;-76
2022/08/08 17:08:04;;;;;;;;;;;;;;;;;;5041851;28;1388;-77
2022/08/08 17:10:30;;;;;;;;;;;;;;;;;;5041987;28;1554;-74
2022/08/08 17:12:56;;;;;;;;;;;;;;;;;;5033485;28;1333;-74
2022/08/08 17:15:23;;;;;;;;;;;;;;;;;;5033567;28;1914;-75
2022/08/08 17:17:50;;;;;;;;;;;;;;;;;;5035024;28;1420;-75
2022/08/08 17:20:16;;;;;;;;;;;;;;;;;;5012854;28;1219;-75
2022/08/08 17:22:42;;;;;;;;;;;;;;;;;;5033639;28;1456;-76
2022/08/08 17:25:09;;;;;;;;;;;;;;;;;;5036701;28;1423;-75